createdAt,value
2023-03-08T00:02:18.050Z,3.70
2023-03-08T00:04:44.829Z,4.27
2023-03-08T00:07:11.594Z,4.03
2023-03-08T00:09:38.792Z,3.40
2023-03-08T00:12:07.269Z,3.93
2023-03-08T00:14:33.927Z,4.13
2023-03-08T00:17:00.665Z,3.70
2023-03-08T00:19:27.303Z,4.03
2023-03-08T00:21:54.018Z,3.70
2023-03-08T00:24:20.738Z,3.30
2023-03-08T00:26:47.470Z,4.37
2023-03-08T00:29:14.220Z,4.17
2023-03-08T00:31:41.476Z,4.20
2023-03-08T00:34:08.179Z,4.20
2023-03-08T00:36:34.842Z,5.07
2023-03-08T00:39:01.555Z,4.10
2023-03-08T00:41:28.312Z,4.17
2023-03-08T00:43:55.007Z,4.90
2023-03-08T00:46:21.802Z,3.83
2023-03-08T00:48:48.794Z,4.10
2023-03-08T00:51:16.993Z,4.87
2023-03-08T00:53:43.653Z,3.97
2023-03-08T00:56:10.785Z,6.10
2023-03-08T00:58:39.428Z,4.40
2023-03-08T01:01:07.790Z,5.17
2023-03-08T01:03:34.767Z,4.90
2023-03-08T01:06:08.347Z,5.90
2023-03-08T01:08:35.464Z,4.80
2023-03-08T01:11:02.279Z,5.17
2023-03-08T01:13:32.413Z,5.27
2023-03-08T01:15:59.486Z,4.60
2023-03-08T01:18:26.583Z,5.07
2023-03-08T01:20:58.464Z,6.67
2023-03-08T01:23:25.404Z,6.23
2023-03-08T01:26:03.153Z,4.47
2023-03-08T01:28:30.118Z,5.03
2023-03-08T01:31:02.703Z,4.60
2023-03-08T01:33:29.444Z,5.13
2023-03-08T01:35:56.199Z,4.87
2023-03-08T01:38:23.637Z,5.33
2023-03-08T01:40:54.830Z,5.33
2023-03-08T01:43:26.641Z,4.60
2023-03-08T01:46:08.395Z,6.07
2023-03-08T01:48:56.211Z,5.80
2023-03-08T01:51:29.163Z,5.23
2023-03-08T01:53:56.322Z,6.20
2023-03-08T01:56:23.913Z,6.40
2023-03-08T01:58:50.994Z,5.57
2023-03-08T02:01:20.035Z,7.30
2023-03-08T02:03:47.966Z,7.20
2023-03-08T02:06:16.369Z,6.77
2023-03-08T02:08:43.596Z,6.17
2023-03-08T02:11:11.219Z,5.50
2023-03-08T02:13:38.046Z,6.03
2023-03-08T02:16:07.191Z,5.20
2023-03-08T02:18:34.113Z,7.77
2023-03-08T02:21:01.502Z,5.33
2023-03-08T02:23:28.201Z,5.37
2023-03-08T02:25:58.071Z,5.13
2023-03-08T02:28:26.354Z,7.03
2023-03-08T02:30:54.684Z,5.47
2023-03-08T02:33:22.150Z,5.90
2023-03-08T02:35:48.814Z,6.37
2023-03-08T02:38:16.810Z,5.33
2023-03-08T02:40:43.699Z,5.77
2023-03-08T02:43:10.755Z,6.73
2023-03-08T02:45:37.450Z,5.27
2023-03-08T02:48:05.224Z,4.90
2023-03-08T02:50:32.473Z,4.77
2023-03-08T02:52:59.536Z,5.57
2023-03-08T02:55:27.131Z,5.97
2023-03-08T02:57:53.956Z,5.50
2023-03-08T03:00:20.838Z,4.67
2023-03-08T03:02:47.794Z,5.53
2023-03-08T03:05:14.550Z,4.63
2023-03-08T03:07:42.835Z,7.63
2023-03-08T03:10:11.994Z,7.13
2023-03-08T03:12:39.407Z,5.13
2023-03-08T03:15:07.376Z,6.10
2023-03-08T03:17:34.127Z,6.07
2023-03-08T03:20:01.102Z,5.50
2023-03-08T03:22:28.186Z,5.73
2023-03-08T03:24:54.860Z,5.70
2023-03-08T03:27:21.582Z,5.47
2023-03-08T03:29:48.315Z,5.17
2023-03-08T03:32:15.107Z,5.50
2023-03-08T03:34:41.827Z,4.63
2023-03-08T03:37:08.490Z,5.50
2023-03-08T03:39:39.412Z,5.97
2023-03-08T03:42:08.065Z,4.93
2023-03-08T03:44:35.004Z,4.17
2023-03-08T03:47:01.737Z,5.20
2023-03-08T03:49:29.196Z,4.77
2023-03-08T03:51:56.000Z,6.40
2023-03-08T03:54:22.771Z,4.23
2023-03-08T03:56:49.595Z,5.60
2023-03-08T03:59:16.290Z,4.23
2023-03-08T04:01:43.072Z,5.33
2023-03-08T04:04:10.698Z,4.73
2023-03-08T04:06:37.815Z,5.00
2023-03-08T04:09:07.369Z,4.67
2023-03-08T04:11:36.698Z,4.17
2023-03-08T04:14:03.896Z,4.17
2023-03-08T04:16:32.543Z,4.13
2023-03-08T04:19:02.416Z,4.80
2023-03-08T04:21:29.463Z,4.00
2023-03-08T04:23:57.628Z,5.17
2023-03-08T04:26:25.372Z,5.00
2023-03-08T04:28:52.398Z,4.17
2023-03-08T04:31:21.760Z,5.07
2023-03-08T04:33:49.024Z,4.70
2023-03-08T04:36:16.733Z,4.27
2023-03-08T04:38:43.728Z,4.67
2023-03-08T04:41:12.200Z,4.20
2023-03-08T04:43:46.329Z,4.23
2023-03-08T04:46:13.491Z,4.10
2023-03-08T04:48:40.540Z,4.13
2023-03-08T04:51:07.629Z,4.60
2023-03-08T04:53:34.804Z,5.30
2023-03-08T04:56:02.086Z,5.83
2023-03-08T04:58:29.782Z,5.27
2023-03-08T05:00:57.187Z,4.30
2023-03-08T05:03:24.111Z,5.03
2023-03-08T05:05:54.269Z,4.57
2023-03-08T05:08:21.878Z,4.93
2023-03-08T05:11:01.078Z,4.67
2023-03-08T05:13:29.945Z,3.80
2023-03-08T05:15:57.179Z,4.37
2023-03-08T05:18:23.902Z,4.67
2023-03-08T05:20:58.640Z,4.70
2023-03-08T05:23:28.473Z,4.70
2023-03-08T05:25:57.025Z,5.37
2023-03-08T05:28:25.399Z,4.70
2023-03-08T05:31:04.496Z,4.90
2023-03-08T05:33:31.398Z,5.30
2023-03-08T05:35:58.214Z,5.67
2023-03-08T05:38:25.485Z,4.97
2023-03-08T05:40:52.672Z,5.27
2023-03-08T05:43:19.712Z,4.90
2023-03-08T05:46:03.588Z,4.80
2023-03-08T05:48:31.590Z,5.43
2023-03-08T05:54:46.764Z,4.27
2023-03-08T05:57:13.534Z,4.03
2023-03-08T05:59:40.330Z,4.67
2023-03-08T06:02:07.105Z,4.40
2023-03-08T06:04:36.500Z,5.20
2023-03-08T06:07:03.472Z,4.60
2023-03-08T06:09:30.535Z,5.17
2023-03-08T06:11:58.345Z,4.30
2023-03-08T06:14:25.783Z,5.90
2023-03-08T06:16:52.617Z,4.50
2023-03-08T06:19:19.296Z,8.63
2023-03-08T06:21:45.967Z,4.43
2023-03-08T06:24:12.680Z,5.33
2023-03-08T06:34:32.816Z,5.80
2023-03-08T06:36:59.930Z,4.90
2023-03-08T06:39:30.623Z,4.63
2023-03-08T06:42:07.408Z,4.13
2023-03-08T06:44:34.174Z,4.77
2023-03-08T06:51:06.461Z,4.37
2023-03-08T06:57:21.187Z,5.23
2023-03-08T07:07:23.163Z,5.07
2023-03-08T07:10:06.047Z,6.47
2023-03-08T07:12:32.798Z,6.00
2023-03-08T07:26:22.022Z,6.07
2023-03-08T07:28:50.412Z,4.50
2023-03-08T07:31:17.638Z,4.77
2023-03-08T07:33:44.342Z,4.70
2023-03-08T07:36:11.303Z,4.87
2023-03-08T07:38:38.287Z,4.87
2023-03-08T07:41:05.019Z,5.60
2023-03-08T07:43:31.790Z,5.43
2023-03-08T07:46:02.647Z,5.13
2023-03-08T07:52:10.123Z,6.83
2023-03-08T07:54:36.876Z,5.83
2023-03-08T07:57:03.867Z,4.90
2023-03-08T07:59:32.150Z,6.80
2023-03-08T08:01:58.866Z,5.23
2023-03-08T08:04:25.608Z,6.03
2023-03-08T08:10:40.867Z,5.83
2023-03-08T08:13:07.641Z,5.57
2023-03-08T08:15:34.344Z,5.43
2023-03-08T08:18:01.233Z,5.53
2023-03-08T08:20:28.464Z,4.70
2023-03-08T08:22:55.198Z,5.87
2023-03-08T08:25:21.934Z,5.57
2023-03-08T08:27:49.784Z,5.40
2023-03-08T08:30:16.686Z,5.53
2023-03-08T08:32:43.450Z,5.17
2023-03-08T08:35:10.372Z,6.33
2023-03-08T08:48:58.876Z,5.37
2023-03-08T08:51:25.566Z,6.03
2023-03-08T08:53:52.820Z,5.23
2023-03-08T08:56:29.292Z,5.83
2023-03-08T08:59:02.742Z,5.73
2023-03-08T09:01:31.766Z,6.70
2023-03-08T09:03:59.414Z,4.83
2023-03-08T09:06:27.421Z,4.97
2023-03-08T09:08:56.126Z,5.37
2023-03-08T09:11:23.820Z,4.60
2023-03-08T09:13:50.585Z,5.03
2023-03-08T09:16:22.751Z,5.17
2023-03-08T09:18:50.060Z,4.17
2023-03-08T09:21:17.667Z,5.00
2023-03-08T09:23:44.848Z,4.77
2023-03-08T09:26:11.691Z,4.50
2023-03-08T09:28:38.408Z,5.53
2023-03-08T09:42:31.097Z,5.70
2023-03-08T09:45:18.401Z,5.57
2023-03-08T09:47:57.584Z,5.20
2023-03-08T09:50:47.609Z,5.60
2023-03-08T09:53:34.835Z,7.57
2023-03-08T09:56:13.016Z,7.13
2023-03-08T09:58:57.998Z,6.07
2023-03-08T10:01:33.788Z,6.27
2023-03-08T10:04:36.155Z,6.43
2023-03-08T10:07:21.441Z,6.77
2023-03-08T10:10:02.649Z,6.60
2023-03-08T10:12:35.652Z,7.27
2023-03-08T10:15:11.540Z,7.07
2023-03-08T10:17:43.685Z,7.23
2023-03-08T10:20:25.152Z,5.93
2023-03-08T10:23:00.331Z,8.03
2023-03-08T10:25:33.778Z,6.17
2023-03-08T10:28:02.756Z,8.50
2023-03-08T10:31:04.362Z,6.97
2023-03-08T10:33:35.899Z,6.60
2023-03-08T10:36:10.074Z,6.03
2023-03-08T10:38:38.327Z,5.13
2023-03-08T10:41:17.340Z,6.10
2023-03-08T10:43:51.505Z,6.40
2023-03-08T10:46:32.004Z,6.57
2023-03-08T10:49:10.093Z,6.10
2023-03-08T10:51:36.807Z,5.40
2023-03-08T10:54:06.213Z,4.57
2023-03-08T10:56:44.934Z,4.13
2023-03-08T10:59:28.032Z,5.00
2023-03-08T11:06:05.090Z,3.30
2023-03-08T11:08:40.049Z,2.90
2023-03-08T11:12:03.772Z,3.47
2023-03-08T11:14:30.780Z,2.83
2023-03-08T11:17:03.225Z,3.57
2023-03-08T11:20:00.108Z,2.40
2023-03-08T11:22:38.751Z,2.67
2023-03-08T11:25:15.833Z,2.50
2023-03-08T11:28:13.386Z,1.80
2023-03-08T11:30:54.921Z,1.70
2023-03-08T11:33:53.371Z,1.10
2023-03-08T11:36:35.179Z,1.10
2023-03-08T11:43:31.774Z,1.20
2023-03-08T11:46:24.127Z,0.90
2023-03-08T11:49:42.315Z,1.37
2023-03-08T11:52:37.524Z,3.13
2023-03-08T11:55:22.226Z,1.07
2023-03-08T11:57:54.664Z,0.60
2023-03-08T12:00:26.539Z,1.27
2023-03-08T12:02:54.380Z,1.50
2023-03-08T12:05:29.883Z,0.80
2023-03-08T12:08:20.611Z,0.60
2023-03-08T12:10:52.154Z,0.70
2023-03-08T12:13:35.513Z,0.53
2023-03-08T12:16:05.049Z,0.50
2023-03-08T12:18:36.302Z,0.60
2023-03-08T12:21:16.809Z,0.87
2023-03-08T12:24:05.387Z,0.70
2023-03-08T12:26:39.144Z,0.50
2023-03-08T12:29:23.451Z,1.13
2023-03-08T12:31:50.601Z,1.40
2023-03-08T12:34:30.367Z,0.60
2023-03-08T12:36:57.174Z,1.93
2023-03-08T12:39:30.795Z,0.57
2023-03-08T12:42:09.622Z,0.60
2023-03-08T12:44:37.181Z,1.67
2023-03-08T12:47:22.427Z,0.50
2023-03-08T12:49:56.372Z,1.00
2023-03-08T12:52:31.663Z,0.80
2023-03-08T12:55:06.805Z,0.80
2023-03-08T12:57:43.134Z,0.70
2023-03-08T13:00:26.559Z,1.13
2023-03-08T13:03:04.658Z,0.93
2023-03-08T13:05:33.710Z,0.90
2023-03-08T13:08:16.362Z,1.10
2023-03-08T13:10:49.117Z,1.30
2023-03-08T13:13:38.289Z,1.20
2023-03-08T13:16:18.328Z,0.93
2023-03-08T13:18:47.660Z,0.90
2023-03-08T13:21:27.262Z,1.00
2023-03-08T13:24:16.785Z,1.03
2023-03-08T13:26:58.359Z,1.27
2023-03-08T13:29:33.278Z,0.73
2023-03-08T13:32:11.630Z,0.97
2023-03-08T13:34:38.408Z,0.93
2023-03-08T13:37:05.099Z,1.40
2023-03-08T13:39:32.372Z,0.60
2023-03-08T13:42:12.830Z,1.07
2023-03-08T13:44:39.586Z,0.63
2023-03-08T13:47:23.962Z,2.73
2023-03-08T13:49:52.200Z,0.60
2023-03-08T13:52:31.844Z,0.70
2023-03-08T13:55:01.122Z,1.60
2023-03-08T13:57:34.191Z,0.53
2023-03-08T14:00:11.802Z,0.60
2023-03-08T14:02:46.211Z,1.17
2023-03-08T14:05:24.830Z,0.60
2023-03-08T14:08:15.966Z,0.83
2023-03-08T14:10:46.245Z,1.00
2023-03-08T14:13:35.935Z,0.70
2023-03-08T14:16:07.478Z,0.77
2023-03-08T14:18:35.614Z,0.87
2023-03-08T14:21:06.153Z,0.77
2023-03-08T14:23:41.311Z,0.60
2023-03-08T14:26:30.225Z,0.50
2023-03-08T14:29:21.940Z,0.70
2023-03-08T14:32:11.946Z,0.90
2023-03-08T14:34:49.284Z,0.87
2023-03-08T14:37:27.217Z,0.60
2023-03-08T14:40:30.266Z,1.13
2023-03-08T14:43:04.466Z,0.40
2023-03-08T14:45:33.583Z,0.43
2023-03-08T14:48:03.846Z,0.40
2023-03-08T14:50:32.516Z,0.40
2023-03-08T14:53:01.481Z,0.83
2023-03-08T14:55:34.311Z,2.53
2023-03-08T14:58:12.139Z,2.00
2023-03-08T15:00:52.859Z,0.50
2023-03-08T15:03:19.606Z,0.40
2023-03-08T15:05:46.677Z,0.40
2023-03-08T15:08:15.103Z,0.50
2023-03-08T15:10:42.514Z,0.40
2023-03-08T15:13:15.294Z,0.40
2023-03-08T15:15:42.035Z,0.50
2023-03-08T15:18:08.766Z,0.40
2023-03-08T15:20:37.731Z,0.30
2023-03-08T15:23:06.520Z,0.20
2023-03-08T15:25:37.844Z,0.40
2023-03-08T15:28:05.827Z,0.43
2023-03-08T15:30:33.269Z,0.20
2023-03-08T15:33:01.292Z,0.40
2023-03-08T15:35:27.973Z,0.40
2023-03-08T15:37:54.692Z,0.50
2023-03-08T15:40:28.282Z,0.50
2023-03-08T15:42:55.432Z,0.60
2023-03-08T15:45:22.322Z,0.50
2023-03-08T15:48:15.761Z,0.60
2023-03-08T15:50:43.000Z,0.50
2023-03-08T15:53:09.855Z,0.30
2023-03-08T15:55:37.968Z,0.70
2023-03-08T15:58:06.285Z,0.57
2023-03-08T16:00:34.559Z,0.73
2023-03-08T16:03:01.322Z,0.60
2023-03-08T16:05:28.736Z,1.40
2023-03-08T16:07:57.673Z,0.60
2023-03-08T16:10:24.481Z,1.07
2023-03-08T16:12:51.175Z,0.53
2023-03-08T16:15:18.063Z,0.50
2023-03-08T16:17:44.854Z,0.60
2023-03-08T16:20:13.213Z,0.60
2023-03-08T16:22:40.605Z,0.70
2023-03-08T16:25:08.450Z,0.90
2023-03-08T16:27:36.633Z,0.57
2023-03-08T16:30:05.823Z,0.50
2023-03-08T16:32:32.718Z,0.50
2023-03-08T16:35:00.194Z,1.50
2023-03-08T16:37:27.574Z,0.90
2023-03-08T16:39:54.618Z,0.70
2023-03-08T16:42:22.077Z,0.50
2023-03-08T16:44:50.753Z,0.50
2023-03-08T16:47:17.513Z,0.53
2023-03-08T16:49:44.244Z,0.57
2023-03-08T16:52:11.055Z,0.50
2023-03-08T16:54:37.800Z,0.50
2023-03-08T16:57:18.152Z,0.40
2023-03-08T16:59:46.284Z,0.57
2023-03-08T17:02:20.679Z,0.43
2023-03-08T17:04:48.316Z,0.60
2023-03-08T17:07:15.971Z,0.60
2023-03-08T17:09:42.724Z,0.53
2023-03-08T17:12:09.582Z,0.67
2023-03-08T17:14:37.045Z,0.40
2023-03-08T17:17:04.666Z,0.60
2023-03-08T17:19:31.557Z,0.70
2023-03-08T17:21:58.449Z,0.60
2023-03-08T17:24:27.937Z,0.70
2023-03-08T17:26:55.084Z,0.87
2023-03-08T17:29:22.238Z,0.70
2023-03-08T17:31:49.135Z,0.60
2023-03-08T17:34:16.169Z,1.07
2023-03-08T17:36:43.299Z,0.73
2023-03-08T17:39:10.172Z,0.83
2023-03-08T17:41:38.573Z,0.60
2023-03-08T17:44:05.434Z,0.90
2023-03-08T17:46:32.179Z,0.70
2023-03-08T17:48:58.943Z,1.27
2023-03-08T17:51:28.777Z,0.87
2023-03-08T17:53:57.988Z,1.40
2023-03-08T17:56:26.508Z,1.80
2023-03-08T17:58:53.902Z,1.00
2023-03-08T18:01:22.497Z,3.00
2023-03-08T18:03:49.770Z,1.50
2023-03-08T18:06:27.564Z,1.40
2023-03-08T18:08:54.471Z,1.30
2023-03-08T18:11:21.170Z,1.83
2023-03-08T18:13:48.875Z,1.80
2023-03-08T18:16:15.866Z,1.90
2023-03-08T18:18:42.757Z,1.83
2023-03-08T18:21:13.778Z,1.60
2023-03-08T18:23:42.672Z,1.60
2023-03-08T18:26:10.763Z,1.60
2023-03-08T18:28:37.468Z,1.67
2023-03-08T18:31:12.156Z,1.53
2023-03-08T18:33:39.295Z,1.80
2023-03-08T18:36:06.317Z,1.20
2023-03-08T18:38:33.195Z,1.40
2023-03-08T18:40:59.851Z,1.30
2023-03-08T18:43:26.544Z,1.10
2023-03-08T18:45:55.037Z,1.00
2023-03-08T18:48:23.255Z,1.20
2023-03-08T18:50:50.228Z,0.90
2023-03-08T18:53:16.991Z,1.17
2023-03-08T18:55:58.046Z,1.77
2023-03-08T18:58:25.943Z,1.97
2023-03-08T19:00:54.773Z,1.43
2023-03-08T19:03:21.478Z,2.03
2023-03-08T19:05:48.143Z,1.80
2023-03-08T19:08:14.905Z,1.70
2023-03-08T19:10:41.684Z,1.50
2023-03-08T19:13:08.356Z,1.80
2023-03-08T19:15:38.898Z,1.60
2023-03-08T19:18:06.388Z,1.63
2023-03-08T19:20:40.360Z,1.43
2023-03-08T19:23:07.865Z,1.93
2023-03-08T19:25:35.433Z,1.50
2023-03-08T19:28:02.817Z,1.10
2023-03-08T19:30:29.526Z,1.80
2023-03-08T19:32:56.804Z,1.37
2023-03-08T19:35:23.529Z,1.50
2023-03-08T19:37:50.472Z,1.53
2023-03-08T19:40:17.770Z,1.40
2023-03-08T19:42:44.499Z,1.50
2023-03-08T19:45:13.048Z,2.00
2023-03-08T19:47:39.773Z,1.10
2023-03-08T19:50:06.961Z,1.10
2023-03-08T19:52:33.702Z,0.80
2023-03-08T19:55:00.456Z,0.90
2023-03-08T19:57:27.181Z,0.80
2023-03-08T19:59:55.268Z,0.90
2023-03-08T20:02:23.364Z,1.00
2023-03-08T20:04:50.012Z,0.70
2023-03-08T20:07:16.654Z,0.80
2023-03-08T20:09:43.346Z,0.70
2023-03-08T20:12:10.311Z,0.70
2023-03-08T20:14:37.460Z,0.80
2023-03-08T20:17:05.251Z,0.80
2023-03-08T20:19:33.979Z,0.80
2023-03-08T20:22:01.198Z,0.90
2023-03-08T20:24:28.129Z,0.97
2023-03-08T20:26:54.913Z,0.70
2023-03-08T20:29:21.898Z,0.77
2023-03-08T20:31:48.801Z,0.93
2023-03-08T20:34:16.168Z,0.80
2023-03-08T20:36:43.468Z,0.73
2023-03-08T20:39:10.217Z,0.70
2023-03-08T20:41:36.924Z,0.70
2023-03-08T20:44:03.591Z,0.87
2023-03-08T20:46:33.591Z,0.60
2023-03-08T20:49:00.844Z,0.70
2023-03-08T20:51:28.321Z,0.63
2023-03-08T20:53:55.744Z,0.70
2023-03-08T20:56:24.043Z,0.60
2023-03-08T20:58:54.335Z,0.77
2023-03-08T21:01:25.373Z,0.80
2023-03-08T21:03:52.345Z,0.60
2023-03-08T21:06:21.696Z,0.60
2023-03-08T21:08:49.447Z,0.67
2023-03-08T21:11:16.808Z,0.70
2023-03-08T21:13:44.382Z,0.70
2023-03-08T21:16:16.015Z,0.60
2023-03-08T21:18:45.912Z,0.87
2023-03-08T21:21:23.998Z,0.80
2023-03-08T21:23:52.761Z,0.50
2023-03-08T21:26:20.872Z,0.60
2023-03-08T21:28:47.992Z,0.70
2023-03-08T21:31:14.815Z,0.80
2023-03-08T21:33:41.728Z,0.70
2023-03-08T21:36:08.610Z,0.80
2023-03-08T21:38:35.353Z,0.83
2023-03-08T21:41:02.005Z,0.70
2023-03-08T21:43:28.684Z,0.70
2023-03-08T21:45:55.355Z,0.80
2023-03-08T21:48:22.374Z,0.63
2023-03-08T21:50:49.046Z,0.70
2023-03-08T21:53:15.854Z,0.80
2023-03-08T21:55:42.650Z,0.60
2023-03-08T21:58:09.629Z,0.90
2023-03-08T22:00:36.279Z,1.00
2023-03-08T22:03:03.109Z,0.70
2023-03-08T22:05:30.270Z,0.70
2023-03-08T22:07:57.240Z,0.80
2023-03-08T22:10:23.942Z,0.80
2023-03-08T22:12:50.595Z,0.70
2023-03-08T22:15:17.348Z,0.90
2023-03-08T22:17:44.232Z,1.00
2023-03-08T22:20:11.620Z,0.90
2023-03-08T22:22:39.602Z,2.13
2023-03-08T22:25:07.587Z,1.23
2023-03-08T22:27:34.870Z,1.30
2023-03-08T22:30:02.445Z,2.07
2023-03-08T22:32:29.193Z,2.23
2023-03-08T22:34:55.870Z,1.03
2023-03-08T22:37:22.927Z,1.10
2023-03-08T22:39:49.595Z,1.13
2023-03-08T22:42:16.757Z,1.90
2023-03-08T22:44:43.613Z,1.07
2023-03-08T22:47:10.352Z,1.00
2023-03-08T22:49:37.023Z,1.30
2023-03-08T22:52:04.732Z,1.67
2023-03-08T22:54:31.457Z,1.20
2023-03-08T22:56:58.816Z,1.00
2023-03-08T22:59:25.782Z,0.80
2023-03-08T23:01:53.361Z,0.90
2023-03-08T23:04:20.734Z,0.70
2023-03-08T23:06:47.764Z,0.70
2023-03-08T23:09:15.294Z,0.70
2023-03-08T23:11:42.756Z,0.70
2023-03-08T23:14:09.582Z,0.67
2023-03-08T23:16:36.748Z,0.70
2023-03-08T23:19:03.782Z,1.00
2023-03-08T23:21:31.821Z,0.80
2023-03-08T23:23:59.075Z,0.67
2023-03-08T23:26:27.455Z,0.87
2023-03-08T23:28:56.084Z,0.77
2023-03-08T23:31:26.140Z,0.90
2023-03-08T23:33:53.514Z,0.60
2023-03-08T23:36:22.613Z,0.70
2023-03-08T23:38:49.958Z,1.63
2023-03-08T23:41:18.405Z,0.90
2023-03-08T23:43:45.790Z,1.00
2023-03-08T23:46:17.379Z,1.13
2023-03-08T23:48:45.633Z,1.80
2023-03-08T23:51:15.341Z,1.07
2023-03-08T23:53:42.170Z,0.70
2023-03-08T23:56:26.352Z,2.70
2023-03-08T23:58:55.121Z,0.70
